Time;durP1;ratioP1;P1;durP2;ratioP2;P2;SDS_P1;SDS_P2;PMS_P1;PMS_P2;Temp;Humidity;BMP_temperature;BMP_pressure;BME280_temperature;BME280_humidity;BME280_pressure;Samples;Min_cycle;Max_cycle;Signal;HPM_P1;HPM_P2
2022/03/02 00:00:04;;;;;;;25.08;9.23;;;;;;;-2.63;61.40;100571.56;5031418;28;20039;-73
2022/03/02 00:02:29;;;;;;;19.63;9.20;;;;;;;-2.67;61.85;100567.94;5015486;28;20049;-74
2022/03/02 00:04:55;;;;;;;25.30;10.63;;;;;;;-2.68;61.89;100568.72;5014573;28;20091;-73
2022/03/02 00:07:21;;;;;;;26.58;12.82;;;;;;;-2.72;61.53;100576.94;5014829;28;20041;-74
2022/03/02 00:09:47;;;;;;;21.92;11.25;;;;;;;-2.70;61.71;100569.41;5032255;28;20037;-74
2022/03/02 00:12:13;;;;;;;30.90;11.57;;;;;;;-2.76;61.58;100564.81;4998496;28;20374;-73
2022/03/02 00:14:39;;;;;;;21.60;10.27;;;;;;;-2.74;61.50;100563.28;5031235;28;20044;-74
2022/03/02 00:17:05;;;;;;;21.10;8.70;;;;;;;-2.82;61.87;100556.81;5030914;28;20045;-74
2022/03/02 00:19:30;;;;;;;18.45;8.45;;;;;;;-2.89;61.31;100552.13;5014489;28;20391;-73
2022/03/02 00:21:56;;;;;;;19.45;8.10;;;;;;;-2.96;61.56;100545.78;5014349;28;20515;-74
2022/03/02 00:24:22;;;;;;;16.98;7.65;;;;;;;-2.94;61.24;100553.50;5014493;28;20041;-74
2022/03/02 00:26:48;;;;;;;18.00;8.00;;;;;;;-2.95;61.85;100549.19;5012751;28;20042;-74
2022/03/02 00:29:13;;;;;;;20.60;7.75;;;;;;;-2.99;61.17;100544.72;5030491;28;20099;-74
2022/03/02 00:31:39;;;;;;;17.10;8.70;;;;;;;-3.05;61.44;100550.28;4994493;28;20053;-75
2022/03/02 00:34:05;;;;;;;16.10;8.27;;;;;;;-3.10;61.69;100542.38;4978571;28;20033;-73
2022/03/02 00:36:31;;;;;;;18.25;8.07;;;;;;;-3.11;61.63;100543.16;5014417;28;20040;-73
2022/03/02 00:38:56;;;;;;;20.35;8.77;;;;;;;-3.18;61.24;100541.00;5013789;28;20037;-73
2022/03/02 00:41:22;;;;;;;19.05;8.48;;;;;;;-3.18;61.10;100535.03;5030702;28;20052;-74
2022/03/02 00:43:48;;;;;;;19.85;8.95;;;;;;;-3.17;61.48;100541.88;5030729;28;20045;-73
2022/03/02 00:46:14;;;;;;;16.55;7.90;;;;;;;-3.24;61.30;100540.59;5014050;28;20042;-74
2022/03/02 00:48:40;;;;;;;18.08;8.52;;;;;;;-3.27;61.11;100536.97;5013759;28;20033;-73
2022/03/02 00:51:06;;;;;;;20.02;8.88;;;;;;;-3.28;61.26;100537.78;5014116;28;20192;-73
2022/03/02 00:53:32;;;;;;;18.45;8.73;;;;;;;-3.25;61.25;100538.84;4981317;28;20084;-73
2022/03/02 00:55:57;;;;;;;19.80;9.38;;;;;;;-3.29;60.87;100536.91;4981716;28;20095;-74
2022/03/02 00:58:23;;;;;;;21.45;9.73;;;;;;;-3.29;61.18;100529.28;5013833;28;20380;-74
2022/03/02 01:00:49;;;;;;;23.40;9.65;;;;;;;-3.30;61.19;100532.56;5030409;28;20041;-74
2022/03/02 01:03:14;;;;;;;16.95;8.82;;;;;;;-3.32;61.65;100527.41;4997652;28;20029;-74
2022/03/02 01:05:40;;;;;;;20.42;9.20;;;;;;;-3.37;61.83;100527.91;5013660;28;20045;-74
2022/03/02 01:08:06;;;;;;;19.48;9.35;;;;;;;-3.42;61.83;100522.53;5030378;28;20045;-74
2022/03/02 01:10:32;;;;;;;21.20;9.68;;;;;;;-3.42;61.88;100526.72;4997491;28;20052;-74
2022/03/02 01:12:57;;;;;;;18.00;8.55;;;;;;;-3.51;62.02;100524.47;5014068;28;20384;-74
2022/03/02 01:15:23;;;;;;;22.23;9.07;;;;;;;-3.57;62.24;100513.94;5030361;28;20040;-74
2022/03/02 01:17:49;;;;;;;23.40;8.98;;;;;;;-3.60;62.33;100517.13;4997681;28;20026;-74
2022/03/02 01:20:15;;;;;;;16.48;8.88;;;;;;;-3.60;62.59;100513.72;5013993;28;20045;-74
2022/03/02 01:22:41;;;;;;;19.27;9.23;;;;;;;-3.62;61.91;100512.72;5030025;28;20091;-74
2022/03/02 01:25:07;;;;;;;20.70;9.40;;;;;;;-3.60;61.81;100512.06;4997432;28;20046;-74
2022/03/02 01:27:33;;;;;;;20.80;9.65;;;;;;;-3.60;61.95;100507.00;5013703;28;20095;-74
2022/03/02 01:29:59;;;;;;;19.83;9.43;;;;;;;-3.58;62.41;100510.50;5031459;28;20110;-74
2022/03/02 01:32:24;;;;;;;16.20;9.32;;;;;;;-3.60;61.96;100512.06;5013695;28;20038;-74
2022/03/02 01:34:50;;;;;;;13.02;7.57;;;;;;;-3.65;61.92;100508.34;5009977;28;20121;-74
2022/03/02 01:37:16;;;;;;;16.73;7.60;;;;;;;-3.70;61.86;100504.63;4994064;28;20041;-73
2022/03/02 01:39:42;;;;;;;16.90;7.35;;;;;;;-3.71;62.15;100502.88;4993671;28;20445;-74
2022/03/02 01:42:08;;;;;;;14.73;7.45;;;;;;;-3.76;61.68;100499.13;4993635;28;20048;-75
2022/03/02 01:44:34;;;;;;;17.05;6.88;;;;;;;-3.81;62.21;100494.53;4993580;28;20050;-74
2022/03/02 01:47:00;;;;;;;13.82;6.82;;;;;;;-3.83;61.90;100490.25;4993898;28;20041;-74
2022/03/02 01:49:26;;;;;;;13.63;6.93;;;;;;;-3.83;61.72;100481.78;5010155;28;20046;-74
2022/03/02 01:51:52;;;;;;;14.95;7.80;;;;;;;-3.84;62.00;100488.50;5011290;28;20045;-74
2022/03/02 01:54:18;;;;;;;13.07;7.15;;;;;;;-3.85;61.89;100484.22;5009760;28;20057;-73
2022/03/02 01:56:43;;;;;;;15.18;7.65;;;;;;;-3.88;62.13;100488.22;4994028;28;20053;-73
2022/03/02 01:59:09;;;;;;;14.25;7.50;;;;;;;-3.90;61.99;100479.59;5011250;28;20088;-73
2022/03/02 02:01:34;;;;;;;15.07;6.80;;;;;;;-3.90;62.17;100483.00;4977860;28;20116;-73
2022/03/02 02:04:01;;;;;;;15.75;8.13;;;;;;;-3.94;62.73;100475.09;4993766;28;20045;-73
2022/03/02 02:06:26;;;;;;;13.57;7.20;;;;;;;-4.00;62.80;100469.63;4977333;28;20050;-73
2022/03/02 02:08:52;;;;;;;17.15;7.50;;;;;;;-4.01;62.99;100467.91;4993622;28;20040;-73
2022/03/02 02:11:18;;;;;;;15.73;8.02;;;;;;;-3.98;62.86;100465.56;4977179;28;20057;-74
2022/03/02 02:13:43;;;;;;;14.85;7.80;;;;;;;-4.00;63.05;100459.50;4993808;28;20397;-73
2022/03/02 02:16:09;;;;;;;15.52;7.90;;;;;;;-4.01;63.22;100463.69;5010028;28;20129;-72
2022/03/02 02:18:35;;;;;;;13.73;6.90;;;;;;;-4.07;63.35;100455.69;4994316;28;20087;-73
2022/03/02 02:21:04;;;;;;;14.52;7.72;;;;;;;-4.09;63.59;100447.97;4980932;28;20080;-73
2022/03/02 02:23:30;;;;;;;15.38;6.80;;;;;;;-4.04;63.51;100450.81;4980876;28;20052;-73
2022/03/02 02:25:56;;;;;;;16.58;7.20;;;;;;;-4.04;63.51;100444.88;4980632;28;20406;-73
2022/03/02 02:28:24;;;;;;;16.33;7.80;;;;;;;-4.07;63.56;100449.75;5013083;28;20037;-73
2022/03/02 02:30:51;;;;;;;16.02;7.68;;;;;;;-4.15;63.83;100441.63;4996888;28;20029;-73
2022/03/02 02:33:17;;;;;;;14.85;7.55;;;;;;;-4.15;64.00;100446.69;4980457;28;20069;-73
2022/03/02 02:35:42;;;;;;;17.90;7.65;;;;;;;-4.19;63.88;100449.81;4979525;28;20488;-73
2022/03/02 02:38:08;;;;;;;14.30;7.55;;;;;;;-4.24;64.03;100441.91;5032454;28;20043;-73
2022/03/02 02:40:33;;;;;;;15.18;7.85;;;;;;;-4.27;63.88;100441.69;5032552;28;20045;-73
2022/03/02 02:42:59;;;;;;;17.75;7.65;;;;;;;-4.30;64.17;100436.44;5016262;28;20048;-73
2022/03/02 02:45:25;;;;;;;16.30;7.95;;;;;;;-4.30;64.22;100438.97;5032634;28;20033;-73
2022/03/02 02:47:54;;;;;;;14.48;7.78;;;;;;;-4.30;64.01;100446.56;5016280;28;20416;-73
2022/03/02 02:50:27;;;;;;;15.35;7.55;;;;;;;-4.35;64.18;100440.31;5032656;28;20042;-73
2022/03/02 02:52:54;;;;;;;15.57;7.63;;;;;;;-4.32;64.81;100437.97;5032261;28;20048;-74
2022/03/02 02:55:21;;;;;;;15.27;7.00;;;;;;;-4.31;64.83;100437.19;5031916;28;20577;-73
2022/03/02 02:57:47;;;;;;;15.63;7.30;;;;;;;-4.35;64.33;100428.53;5032239;28;20045;-73
2022/03/02 03:00:14;;;;;;;;;;;;;;;-4.38;65.07;100429.97;5016106;28;20455;-73
2022/03/02 03:02:40;;;;;;;16.90;7.30;;;;;;;-4.43;65.28;100431.31;5032474;28;19917;-73
2022/03/02 03:05:14;;;;;;;16.50;7.03;;;;;;;-4.45;65.22;100418.53;5032060;28;20047;-72
2022/03/02 03:07:40;;;;;;;16.08;8.00;;;;;;;-4.45;64.79;100420.19;5032138;28;20433;-72
2022/03/02 03:10:06;;;;;;;12.80;7.30;;;;;;;-4.51;64.50;100418.13;4999196;28;20029;-72
2022/03/02 03:12:33;;;;;;;16.50;7.38;;;;;;;-4.55;64.76;100422.88;5015460;28;20050;-74
2022/03/02 03:14:58;;;;;;;18.20;7.82;;;;;;;-4.64;64.90;100421.47;5032094;28;20038;-74
2022/03/02 03:17:24;;;;;;;18.58;7.72;;;;;;;-4.72;64.80;100414.13;5032244;28;20041;-74
2022/03/02 03:19:50;;;;;;;17.10;7.65;;;;;;;-4.78;65.05;100417.13;5032982;28;20046;-72
2022/03/02 03:22:16;;;;;;;15.70;6.40;;;;;;;-4.85;65.51;100414.97;5015643;28;20045;-73
2022/03/02 03:24:41;;;;;;;16.25;7.07;;;;;;;-4.91;65.57;100414.50;5031875;28;20045;-73
2022/03/02 03:27:07;;;;;;;17.17;6.88;;;;;;;-4.99;65.43;100410.59;5031713;28;20095;-72
2022/03/02 03:29:33;;;;;;;14.02;7.22;;;;;;;-5.07;65.22;100401.59;5031867;28;20116;-75
2022/03/02 03:31:58;;;;;;;;;;;;;;;-5.19;64.68;100399.94;5023174;28;20068;-74
2022/03/02 03:34:24;;;;;;;15.10;6.50;;;;;;;-5.19;64.57;100399.94;5032689;28;19975;-74
2022/03/02 03:36:52;;;;;;;12.68;6.72;;;;;;;-5.22;64.42;100399.75;5029040;28;20480;-74
2022/03/02 03:39:18;;;;;;;13.50;6.53;;;;;;;-5.23;65.23;100400.50;5015096;28;20120;-74
2022/03/02 03:41:44;;;;;;;15.02;6.95;;;;;;;-5.29;65.04;100392.50;5032809;28;20593;-74
2022/03/02 03:44:10;;;;;;;17.63;6.53;;;;;;;-5.33;65.39;100392.16;4998875;28;20044;-74
2022/03/02 03:46:36;;;;;;;;;;;;;;;-5.39;65.46;100385.03;5029784;28;20038;-75
2022/03/02 03:49:01;;;;;;;15.57;6.80;;;;;;;-5.38;65.43;100381.72;5046995;28;20380;-75
2022/03/02 03:51:27;;;;;;;16.65;6.75;;;;;;;-5.38;65.27;100384.25;5028143;28;20045;-75
2022/03/02 03:53:53;;;;;;;19.80;7.63;;;;;;;-5.44;65.15;100382.19;5025366;28;20053;-74
2022/03/02 03:56:19;;;;;;;17.25;7.85;;;;;;;-5.53;64.82;100386.59;4998408;28;20046;-74
2022/03/02 03:58:45;;;;;;;19.10;8.25;;;;;;;-5.56;65.17;100385.50;4998083;28;20033;-75
2022/03/02 04:01:10;;;;;;;21.42;10.10;;;;;;;-5.53;65.44;100376.47;5031628;28;20411;-75
2022/03/02 04:03:36;;;;;;;16.70;8.05;;;;;;;-5.49;64.46;100382.63;5031267;28;20042;-74
2022/03/02 04:06:02;;;;;;;17.20;9.27;;;;;;;-5.45;64.41;100382.97;5014721;28;20040;-74
2022/03/02 04:08:28;;;;;;;16.50;7.93;;;;;;;-5.47;64.70;100379.44;5014909;28;20036;-74
2022/03/02 04:10:53;;;;;;;20.20;8.18;;;;;;;-5.43;64.64;100383.06;4998051;28;20053;-74
2022/03/02 04:13:19;;;;;;;15.23;7.63;;;;;;;-5.40;64.05;100384.16;5031070;28;20056;-74
2022/03/02 04:15:45;;;;;;;14.90;7.20;;;;;;;-5.37;64.19;100386.00;5014671;28;20033;-74
2022/03/02 04:18:11;;;;;;;16.08;6.53;;;;;;;-5.39;63.59;100380.84;5014435;28;20041;-74
2022/03/02 04:20:37;;;;;;;41.08;22.52;;;;;;;-5.41;63.94;100381.50;5031739;28;20461;-74
2022/03/02 04:23:03;;;;;;;14.35;6.88;;;;;;;-5.39;63.92;100385.03;5014875;28;20037;-74
2022/03/02 04:25:29;;;;;;;14.73;7.18;;;;;;;-5.43;63.86;100378.00;5013480;28;20087;-74
2022/03/02 04:27:55;;;;;;;21.92;7.75;;;;;;;-5.40;64.11;100383.28;5014664;28;20040;-74
2022/03/02 04:30:20;;;;;;;22.88;8.10;;;;;;;-5.37;63.78;100380.97;5014230;28;20049;-76
2022/03/02 04:32:46;;;;;;;16.83;8.30;;;;;;;-5.34;64.02;100386.25;5014727;28;20072;-75
2022/03/02 04:35:12;;;;;;;21.35;7.15;;;;;;;-5.40;63.45;100381.63;5014006;28;20180;-75
2022/03/02 04:37:38;;;;;;;19.73;8.07;;;;;;;-5.41;64.00;100378.97;5014319;28;20044;-76
2022/03/02 04:40:06;;;;;;;17.27;7.22;;;;;;;-5.39;63.81;100379.97;4981883;28;20038;-74
2022/03/02 04:42:32;;;;;;;18.10;8.18;;;;;;;-5.37;64.84;100386.00;5029933;28;20033;-75
2022/03/02 04:44:58;;;;;;;17.95;7.28;;;;;;;-5.33;64.60;100387.13;5014200;28;20034;-73
2022/03/02 04:47:24;;;;;;;18.02;6.80;;;;;;;-5.31;64.52;100394.06;5032061;28;20071;-74
2022/03/02 04:49:49;;;;;;;;;;;;;;;-5.29;64.79;100392.50;5030709;28;20045;-74
2022/03/02 04:52:15;;;;;;;17.13;6.60;;;;;;;-5.19;64.56;100394.00;5031743;28;19978;-74
2022/03/02 04:57:25;;;;;;;40.55;11.23;;;;;;;-5.07;65.11;100381.34;5016701;28;20110;-74
2022/03/02 04:59:50;;;;;;;59.17;11.75;;;;;;;-4.99;65.07;100386.16;5014016;28;20477;-74
2022/03/02 05:02:17;;;;;;;27.85;8.27;;;;;;;-4.96;64.71;100388.03;5030611;28;20095;-74
2022/03/02 05:04:43;;;;;;;35.67;9.55;;;;;;;-4.94;64.90;100377.25;5030269;28;20072;-75
2022/03/02 05:07:08;;;;;;;18.42;8.60;;;;;;;-4.88;65.41;100382.72;5014148;28;20087;-74
2022/03/02 05:09:34;;;;;;;23.85;8.00;;;;;;;-4.81;65.95;100381.50;5030223;28;20037;-74
2022/03/02 05:12:02;;;;;;;23.42;7.85;;;;;;;-4.74;65.50;100380.25;5031280;28;20087;-74
2022/03/02 05:14:29;;;;;;;27.45;8.05;;;;;;;-4.70;64.80;100377.16;5013992;28;20055;-74
2022/03/02 05:16:55;;;;;;;19.75;8.35;;;;;;;-4.71;65.06;100371.22;4997540;28;20384;-75
2022/03/02 05:19:20;;;;;;;18.90;7.55;;;;;;;-4.76;65.13;100377.63;5013891;28;20041;-75
2022/03/02 05:21:47;;;;;;;16.83;8.07;;;;;;;-4.82;64.65;100369.59;5030435;28;20045;-75
2022/03/02 05:24:14;;;;;;;22.55;8.35;;;;;;;-4.84;65.07;100373.69;5030297;28;20033;-75
2022/03/02 05:26:40;;;;;;;20.95;8.98;;;;;;;-4.88;65.34;100370.06;5030931;28;20124;-74
2022/03/02 05:29:06;;;;;;;23.48;8.40;;;;;;;-4.89;65.26;100364.91;5013220;28;20136;-74
2022/03/02 05:31:31;;;;;;;21.63;8.13;;;;;;;-4.90;65.50;100371.63;5014341;28;20041;-74
2022/03/02 05:33:57;;;;;;;20.38;8.60;;;;;;;-4.90;65.51;100363.16;5030112;28;20048;-75
2022/03/02 05:36:24;;;;;;;27.00;9.18;;;;;;;-4.89;65.50;100359.84;4997816;28;20126;-74
2022/03/02 05:38:49;;;;;;;25.70;9.43;;;;;;;-4.83;64.91;100359.38;5014253;28;20045;-78
2022/03/02 05:41:15;;;;;;;25.55;9.63;;;;;;;-4.81;64.76;100361.25;4997385;28;20045;-74
2022/03/02 05:43:41;;;;;;;24.95;9.88;;;;;;;-4.78;65.19;100358.91;5031561;28;20373;-75
2022/03/02 05:46:07;;;;;;;27.80;10.23;;;;;;;-4.80;64.92;100346.94;5031485;28;20037;-76
2022/03/02 05:48:33;;;;;;;23.42;9.25;;;;;;;-4.73;65.19;100344.91;5013433;28;20083;-75
2022/03/02 05:50:58;;;;;;;21.52;10.43;;;;;;;-4.71;65.50;100340.84;5029999;28;20075;-75
2022/03/02 05:53:24;;;;;;;20.30;9.85;;;;;;;-4.65;65.41;100341.25;5030383;28;20037;-76
2022/03/02 05:55:50;;;;;;;18.90;10.10;;;;;;;-4.60;64.89;100339.00;5017710;28;20096;-75
2022/03/02 05:58:15;;;;;;;18.08;10.15;;;;;;;-4.52;64.88;100337.00;5000830;28;20132;-74
2022/03/02 06:00:42;;;;;;;22.13;10.27;;;;;;;-4.49;64.75;100337.19;5034103;28;20394;-74
2022/03/02 06:03:08;;;;;;;21.13;10.18;;;;;;;-4.46;64.05;100332.34;5017387;28;20143;-75
2022/03/02 06:05:34;;;;;;;18.50;10.32;;;;;;;-4.37;64.26;100338.00;5001160;28;20130;-74
2022/03/02 06:08:00;;;;;;;;;;;;;;;-4.29;64.45;100326.72;5034025;28;20044;-74
2022/03/02 06:10:26;;;;;;;24.27;11.95;;;;;;;-4.21;63.91;100329.78;5034897;28;19920;-74
2022/03/02 06:12:52;;;;;;;20.02;11.32;;;;;;;-4.14;63.98;100332.78;5017112;28;20048;-75
2022/03/02 06:15:18;;;;;;;21.33;11.50;;;;;;;-4.02;63.68;100327.63;5017020;28;20033;-76
2022/03/02 06:17:44;;;;;;;18.42;11.40;;;;;;;-3.92;64.04;100326.56;5034467;28;20041;-75
2022/03/02 06:20:10;;;;;;;24.80;11.70;;;;;;;-3.84;63.88;100315.25;5034734;28;20200;-74
2022/03/02 06:22:36;;;;;;;38.35;13.13;;;;;;;-3.74;63.34;100321.78;5033416;28;20049;-74
2022/03/02 06:25:02;;;;;;;21.80;13.10;;;;;;;-3.67;62.92;100324.78;5000580;28;20040;-76
2022/03/02 06:27:28;;;;;;;;;;;;;;;-3.63;62.41;100319.13;5017473;28;20044;-75
2022/03/02 06:29:54;;;;;;;23.75;11.23;;;;;;;-3.56;61.77;100320.41;5033527;28;20007;-75
2022/03/02 06:32:19;;;;;;;18.25;10.68;;;;;;;-3.50;62.15;100315.72;5016885;28;20040;-75
2022/03/02 06:34:45;;;;;;;22.20;10.43;;;;;;;-3.47;61.70;100312.50;4997117;28;20502;-79
2022/03/02 06:37:11;;;;;;;23.73;11.10;;;;;;;-3.37;61.15;100318.22;4981077;28;20069;-73
2022/03/02 06:39:36;;;;;;;15.90;9.90;;;;;;;-3.29;61.42;100313.63;5014382;28;20456;-74
2022/03/02 06:42:09;;;;;;;22.17;11.68;;;;;;;-3.20;60.97;100315.84;5013407;28;20045;-76
2022/03/02 06:44:57;;;;;;;24.80;10.35;;;;;;;-3.15;60.26;100317.88;5013329;28;20044;-75
2022/03/02 06:47:27;;;;;;;19.88;9.85;;;;;;;-3.06;60.62;100315.03;4996786;28;20052;-75
2022/03/02 06:50:10;;;;;;;17.35;9.38;;;;;;;-2.97;59.86;100314.72;4980778;28;20046;-74
2022/03/02 06:52:37;;;;;;;16.73;9.07;;;;;;;-2.88;59.94;100310.19;4997057;28;20092;-74
2022/03/02 06:55:09;;;;;;;23.05;9.40;;;;;;;-2.82;59.21;100310.53;5012625;28;20057;-74
2022/03/02 06:57:35;;;;;;;24.67;10.82;;;;;;;-2.73;59.22;100306.00;4997475;28;20045;-74
2022/03/02 07:00:06;;;;;;;22.55;10.55;;;;;;;-2.70;59.13;100296.03;4980482;28;20497;-74
2022/03/02 07:02:40;;;;;;;29.38;11.02;;;;;;;-2.59;59.33;100300.06;4996580;28;20037;-74
2022/03/02 07:05:07;;;;;;;29.92;11.77;;;;;;;-2.51;58.09;100297.97;4996018;28;20045;-75
2022/03/02 07:07:34;;;;;;;27.85;10.57;;;;;;;-2.41;58.52;100294.28;4980324;28;20041;-75
2022/03/02 07:10:00;;;;;;;29.23;11.13;;;;;;;-2.34;57.88;100289.66;5012682;28;20492;-75
2022/03/02 07:12:26;;;;;;;27.25;10.60;;;;;;;-2.27;57.46;100293.41;5012459;28;20115;-75
2022/03/02 07:14:52;;;;;;;30.65;10.40;;;;;;;-2.22;57.30;100289.47;5012531;28;20135;-75
2022/03/02 07:17:18;;;;;;;29.52;9.60;;;;;;;-2.15;57.19;100281.41;5012759;28;20433;-75
2022/03/02 07:19:44;;;;;;;24.15;9.82;;;;;;;-2.10;57.19;100289.28;4996351;28;20046;-75
2022/03/02 07:22:09;;;;;;;22.85;9.95;;;;;;;-2.07;57.32;100277.59;4996086;28;20084;-77
2022/03/02 07:24:51;;;;;;;26.25;10.18;;;;;;;-2.00;57.03;100283.94;4996458;28;20129;-76
2022/03/02 07:27:18;;;;;;;23.77;10.48;;;;;;;-1.91;57.12;100273.41;5012287;28;20037;-74
2022/03/02 07:29:44;;;;;;;25.42;11.10;;;;;;;-1.82;56.23;100274.78;4996662;28;20029;-77
2022/03/02 07:32:09;;;;;;;;;;;;;;;-1.73;56.06;100279.50;4996484;28;20045;-76
2022/03/02 07:34:35;;;;;;;26.13;8.32;;;;;;;-1.60;54.85;100283.59;5018480;28;20008;-75
2022/03/02 07:37:01;;;;;;;;;;;;;;;-1.47;52.40;100280.88;5016034;28;20084;-75
2022/03/02 07:39:28;;;;;;;17.73;7.75;;;;;;;-1.35;52.80;100273.03;5015279;28;20007;-75
2022/03/02 07:41:54;;;;;;;14.77;7.47;;;;;;;-1.24;52.51;100274.47;5015417;28;20498;-75
2022/03/02 07:44:20;;;;;;;20.92;7.75;;;;;;;-1.08;51.76;100277.03;5032255;28;20091;-75
2022/03/02 07:46:47;;;;;;;16.75;7.72;;;;;;;-0.97;51.78;100272.47;5032981;28;20041;-75
2022/03/02 07:49:12;;;;;;;18.02;6.93;;;;;;;-0.88;51.50;100267.84;5015475;28;20041;-76
2022/03/02 07:51:38;;;;;;;16.00;7.75;;;;;;;-0.80;51.20;100270.81;5032746;28;20037;-75
2022/03/02 07:54:04;;;;;;;14.30;6.20;;;;;;;-0.68;49.89;100271.44;5015050;28;20380;-75
2022/03/02 07:56:31;;;;;;;13.25;6.28;;;;;;;-0.59;50.15;100266.81;4999313;28;20051;-78
2022/03/02 07:59:02;;;;;;;19.15;7.20;;;;;;;-0.49;49.52;100267.25;5031515;28;20102;-76
2022/03/02 08:01:28;;;;;;;21.20;6.95;;;;;;;-0.38;49.67;100263.56;4998941;28;20069;-74
2022/03/02 08:03:54;;;;;;;16.98;6.63;;;;;;;-0.27;49.16;100259.88;5015202;28;20075;-75
2022/03/02 08:06:19;;;;;;;13.60;6.05;;;;;;;-0.16;49.09;100266.34;5014785;28;20064;-76
2022/03/02 08:08:45;;;;;;;13.07;6.10;;;;;;;-0.11;48.12;100259.78;5014928;28;20436;-74
2022/03/02 08:11:11;;;;;;;10.05;5.90;;;;;;;-0.09;48.35;100260.75;5014660;28;20045;-74
2022/03/02 08:13:36;;;;;;;18.88;8.25;;;;;;;-0.04;47.79;100248.22;5014911;28;20095;-76
2022/03/02 08:16:02;;;;;;;22.80;6.80;;;;;;;0.05;47.79;100258.84;5013874;28;20584;-76
2022/03/02 08:18:28;;;;;;;22.88;7.72;;;;;;;0.14;47.66;100248.22;5015327;28;20029;-76
2022/03/02 08:20:56;;;;;;;23.30;8.38;;;;;;;0.23;47.69;100251.19;5014798;28;20045;-74
2022/03/02 08:23:23;;;;;;;19.05;7.47;;;;;;;0.33;48.28;100239.72;4998700;28;20087;-75
2022/03/02 08:25:50;;;;;;;21.45;7.70;;;;;;;0.43;48.16;100242.75;5031101;28;20041;-76
2022/03/02 08:28:16;;;;;;;20.55;8.80;;;;;;;0.50;48.01;100241.34;4998492;28;20080;-76
2022/03/02 08:30:42;;;;;;;20.02;8.45;;;;;;;0.55;47.81;100236.44;5030679;28;20067;-76
2022/03/02 08:33:08;;;;;;;26.85;9.10;;;;;;;0.59;47.68;100238.34;5032325;28;20123;-76
2022/03/02 08:35:35;;;;;;;20.70;8.65;;;;;;;0.63;48.08;100235.13;4998382;28;20052;-76
2022/03/02 08:38:02;;;;;;;29.85;8.93;;;;;;;0.67;47.19;100227.66;4982576;28;20461;-75
2022/03/02 08:40:28;;;;;;;23.52;8.93;;;;;;;0.73;47.07;100227.06;4998031;28;20420;-75
2022/03/02 08:42:56;;;;;;;21.40;8.55;;;;;;;0.73;46.88;100217.75;5014411;28;20073;-75
2022/03/02 08:45:23;;;;;;;18.08;7.55;;;;;;;0.82;46.54;100219.81;5014730;28;20517;-73
2022/03/02 08:47:49;;;;;;;24.88;8.40;;;;;;;0.83;46.84;100213.91;5014479;28;20488;-77
2022/03/02 08:50:15;;;;;;;21.48;8.48;;;;;;;0.91;46.42;100215.09;5014306;28;20049;-75
2022/03/02 08:52:40;;;;;;;16.98;7.38;;;;;;;0.95;46.68;100206.75;5030629;28;20075;-76
2022/03/02 08:55:09;;;;;;;15.60;6.25;;;;;;;1.04;45.78;100200.31;5031233;28;20136;-75
2022/03/02 08:57:38;;;;;;;17.27;7.03;;;;;;;1.17;45.66;100202.56;5014602;28;20064;-75
2022/03/02 09:00:06;;;;;;;20.45;6.53;;;;;;;1.23;45.01;100197.69;5014174;28;20123;-74
2022/03/02 09:02:31;;;;;;;21.42;7.55;;;;;;;1.26;45.45;100192.72;5014691;28;20040;-75
2022/03/02 09:05:00;;;;;;;22.05;8.20;;;;;;;1.25;45.45;100180.78;4998327;28;20042;-75
2022/03/02 09:07:26;;;;;;;14.02;6.80;;;;;;;1.32;44.80;100184.44;5014513;28;20052;-76
2022/03/02 09:09:52;;;;;;;21.40;8.77;;;;;;;1.34;45.06;100172.59;5013986;28;20049;-75
2022/03/02 09:12:18;;;;;;;;;;;;;;;1.37;44.47;100180.38;4982004;28;20037;-75
2022/03/02 09:14:44;;;;;;;18.75;7.30;;;;;;;1.40;45.21;100170.28;5031923;28;20355;-76
2022/03/02 09:17:10;;;;;;;17.30;6.20;;;;;;;1.49;45.30;100163.00;5014258;28;20033;-77
2022/03/02 09:19:35;;;;;;;15.45;5.90;;;;;;;1.57;43.92;100163.31;5014551;28;20128;-74
2022/03/02 09:22:03;;;;;;;14.02;6.30;;;;;;;1.58;44.09;100154.81;5013873;28;20033;-76
2022/03/02 09:24:29;;;;;;;14.57;5.82;;;;;;;1.61;43.67;100150.72;5030658;28;20052;-75
2022/03/02 09:26:59;;;;;;;12.30;5.72;;;;;;;1.65;43.60;100138.88;5030260;28;20037;-74
2022/03/02 09:29:29;;;;;;;14.02;6.82;;;;;;;1.74;43.48;100145.25;5018391;28;20072;-76
2022/03/02 09:31:56;;;;;;;25.48;6.30;;;;;;;1.79;43.64;100137.78;5018284;28;20073;-74
2022/03/02 09:34:25;;;;;;;15.48;6.57;;;;;;;1.90;43.13;100139.03;4998258;28;20370;-74
2022/03/02 09:36:50;;;;;;;12.35;5.97;;;;;;;1.93;42.92;100135.75;5014344;28;20034;-76
2022/03/02 09:39:16;;;;;;;12.00;5.85;;;;;;;1.96;42.32;100135.84;4998246;28;20041;-74
2022/03/02 09:41:51;;;;;;;19.63;5.65;;;;;;;2.07;41.91;100126.88;5015632;28;20049;-75
2022/03/02 09:44:19;;;;;;;13.18;5.68;;;;;;;2.13;41.73;100121.13;4982633;28;20487;-75
2022/03/02 09:46:48;;;;;;;11.40;5.65;;;;;;;2.18;41.57;100114.47;5014180;28;20029;-74
2022/03/02 09:49:14;;;;;;;13.40;6.40;;;;;;;2.25;41.30;100119.88;4997707;28;20060;-73
2022/03/02 09:51:41;;;;;;;19.17;5.93;;;;;;;2.30;41.18;100112.38;4998347;28;20037;-73
2022/03/02 09:54:08;;;;;;;16.88;5.65;;;;;;;2.39;41.16;100107.59;5013867;28;20056;-75
2022/03/02 09:56:35;;;;;;;15.52;6.50;;;;;;;2.54;41.35;100110.69;4981510;28;20474;-75
2022/03/02 09:59:05;;;;;;;11.32;4.82;;;;;;;2.71;39.32;100102.72;4997661;28;20520;-74
2022/03/02 10:01:33;;;;;;;13.90;8.45;;;;;;;2.84;39.34;100102.31;4998198;28;20938;-74
2022/03/02 10:04:13;;;;;;;12.38;5.50;;;;;;;3.04;39.07;100097.84;4998167;28;20820;-75
2022/03/02 10:06:42;;;;;;;14.40;5.72;;;;;;;3.27;38.64;100093.47;4998551;28;20030;-76
2022/03/02 10:09:07;;;;;;;13.02;5.30;;;;;;;3.45;38.08;100081.22;4981295;28;20124;-75
2022/03/02 10:11:34;;;;;;;21.05;11.25;;;;;;;3.64;38.39;100076.66;4997320;28;20133;-74
2022/03/02 10:13:59;;;;;;;12.52;6.07;;;;;;;4.04;37.69;100071.00;4997478;28;20497;-74
2022/03/02 10:16:26;;;;;;;10.50;4.97;;;;;;;5.23;35.69;100070.72;4997479;28;20081;-74
2022/03/02 10:18:55;;;;;;;11.40;5.50;;;;;;;6.77;32.67;100066.22;4997394;28;20133;-76
2022/03/02 10:21:30;;;;;;;12.07;5.18;;;;;;;7.94;30.46;100049.94;5014765;28;20417;-75
2022/03/02 10:24:00;;;;;;;9.52;4.90;;;;;;;8.84;29.33;100053.50;4981823;28;20138;-75
2022/03/02 10:26:35;;;;;;;14.05;5.63;;;;;;;9.57;27.52;100048.91;4997205;28;20045;-75
2022/03/02 10:29:04;;;;;;;9.90;4.95;;;;;;;10.27;26.35;100047.56;4981623;28;20038;-77
2022/03/02 10:32:05;;;;;;;15.90;8.80;;;;;;;10.99;25.19;100048.53;4996856;28;20076;-75
2022/03/02 10:34:48;;;;;;;15.02;5.57;;;;;;;11.65;24.38;100038.09;5005180;28;20398;-76
2022/03/02 10:37:19;;;;;;;11.80;6.20;;;;;;;12.23;23.53;100039.63;5017691;28;20041;-73
2022/03/02 10:40:07;;;;;;;9.68;5.63;;;;;;;12.50;23.72;100031.69;5031937;28;20068;-76
2022/03/02 10:42:36;;;;;;;11.10;5.22;;;;;;;12.80;22.42;100025.41;5017109;28;20048;-75
2022/03/02 10:45:23;;;;;;;6.85;4.40;;;;;;;12.93;21.70;100016.63;5016376;28;20062;-74
2022/03/02 10:47:58;;;;;;;13.82;5.07;;;;;;;13.18;21.82;100019.03;5033764;28;20485;-75
2022/03/02 10:50:28;;;;;;;9.50;5.00;;;;;;;13.71;21.83;100008.09;5033796;28;20042;-77
2022/03/02 10:52:55;;;;;;;11.75;4.70;;;;;;;14.20;21.52;100007.50;5016597;28;20041;-75
2022/03/02 10:55:22;;;;;;;12.35;4.90;;;;;;;14.61;22.44;100006.06;5032620;28;20065;-75
2022/03/02 10:57:52;;;;;;;9.13;4.68;;;;;;;14.69;20.26;100004.19;5015740;28;20045;-76
2022/03/02 11:00:19;;;;;;;11.13;5.25;;;;;;;14.68;20.23;99997.25;5032314;28;20127;-75
2022/03/02 11:02:46;;;;;;;11.10;4.93;;;;;;;14.95;21.01;99988.13;5016031;28;20500;-75
2022/03/02 11:05:13;;;;;;;10.07;4.85;;;;;;;15.10;19.82;99996.59;4999723;28;20091;-74
2022/03/02 11:07:40;;;;;;;9.15;4.20;;;;;;;15.28;19.72;99990.19;4999316;28;20025;-75
2022/03/02 11:10:07;;;;;;;7.82;4.63;;;;;;;14.88;19.18;99985.63;5015910;28;20180;-75
2022/03/02 11:12:33;;;;;;;10.95;4.93;;;;;;;14.74;19.36;99989.31;5032280;28;20109;-74
2022/03/02 11:15:04;;;;;;;11.20;5.05;;;;;;;14.80;19.47;99966.59;5015388;28;20131;-74
2022/03/02 11:17:30;;;;;;;10.30;4.68;;;;;;;15.21;19.17;99974.63;5015411;28;20505;-75
2022/03/02 11:19:57;;;;;;;13.90;4.78;;;;;;;15.40;18.80;99958.59;5015882;28;20086;-75